Terminal Aerodrome Forecast
Issued by NWS Cleveland, OH

Home | Current Version | Previous Version | Text Only | Print | Product List | Glossary On
Versions: 1 2 3 4 5 6 7 8 9 10 11 12 13 14 15 16
204
FTUS41 KCLE 241735
TAFMFD
TAF
KMFD 241735Z 2418/2518 19012G18KT P6SM BKN045 OVC080
     FM242200 19012G18KT 6SM -SHRA VCTS OVC035CB
      TEMPO 2423/2502 3SM -TSRA OVC025CB
     FM250200 20010KT P6SM OVC035
     FM250900 23006KT 3SM BR OVC025
     FM251500 24010KT P6SM BKN035=

USA.gov is the U.S. government's official web portal to all federal, state and local government web resources and services.